createdAt,value
2023-01-25T00:00:54.443Z,66552.00
2023-01-25T00:01:54.441Z,66552.00
2023-01-25T00:02:54.381Z,66550.00
2023-01-25T00:03:54.297Z,66550.00
2023-01-25T00:04:54.252Z,66550.00
2023-01-25T00:05:54.203Z,66550.00
2023-01-25T00:06:54.163Z,66550.00
2023-01-25T00:07:54.125Z,66548.00
2023-01-25T00:08:54.089Z,66550.00
2023-01-25T00:09:54.002Z,66550.00
2023-01-25T00:10:53.976Z,66552.00
2023-01-25T00:11:53.923Z,66554.00
2023-01-25T00:12:53.882Z,66550.00
2023-01-25T00:13:53.870Z,66552.00
2023-01-25T00:14:53.759Z,66554.00
2023-01-25T00:15:53.730Z,66550.00
2023-01-25T00:16:53.753Z,66552.00
2023-01-25T00:17:53.642Z,66550.00
2023-01-25T00:18:53.591Z,66550.00
2023-01-25T00:19:53.570Z,66550.00
2023-01-25T00:20:53.532Z,66550.00
2023-01-25T00:21:53.505Z,66550.00
2023-01-25T00:22:53.431Z,66548.00
2023-01-25T00:23:53.401Z,66550.00
2023-01-25T00:24:53.515Z,66548.00
2023-01-25T00:25:53.297Z,66550.00
2023-01-25T00:26:53.239Z,66548.00
2023-01-25T00:27:53.228Z,66548.00
2023-01-25T00:28:53.149Z,66546.00
2023-01-25T00:29:53.092Z,66548.00
2023-01-25T00:30:53.053Z,66548.00
2023-01-25T00:31:53.105Z,66548.00
2023-01-25T00:32:52.965Z,66548.00
2023-01-25T00:33:52.922Z,66548.00
2023-01-25T00:34:52.908Z,66550.00
2023-01-25T00:35:52.850Z,66548.00
2023-01-25T00:36:52.800Z,66546.00
2023-01-25T00:37:52.767Z,66548.00
2023-01-25T00:38:52.688Z,66546.00
2023-01-25T00:39:52.637Z,66546.00
2023-01-25T00:40:52.572Z,66546.00
2023-01-25T00:41:52.560Z,66546.00
2023-01-25T00:42:52.517Z,66546.00
2023-01-25T00:43:52.447Z,66546.00
2023-01-25T00:44:52.419Z,66546.00
2023-01-25T00:45:52.439Z,66548.00
2023-01-25T00:46:52.308Z,66546.00
2023-01-25T00:47:52.259Z,66548.00
2023-01-25T00:48:52.220Z,66546.00
2023-01-25T00:49:52.150Z,66546.00
2023-01-25T00:50:52.091Z,66548.00
2023-01-25T00:51:52.044Z,66546.00
2023-01-25T00:52:52.041Z,66548.00
2023-01-25T00:53:51.973Z,66548.00
2023-01-25T00:54:51.911Z,66548.00
2023-01-25T00:55:51.887Z,66546.00
2023-01-25T00:56:51.803Z,66546.00
2023-01-25T00:57:51.759Z,66544.00
2023-01-25T00:58:51.706Z,66544.00
2023-01-25T00:59:51.639Z,66544.00
2023-01-25T01:00:51.639Z,66546.00
2023-01-25T01:01:51.546Z,66546.00
2023-01-25T01:02:51.504Z,66546.00
2023-01-25T01:03:51.465Z,66543.00
2023-01-25T01:04:51.443Z,66543.00
2023-01-25T01:05:51.357Z,66546.00
2023-01-25T01:06:51.333Z,66546.00
2023-01-25T01:07:51.235Z,66548.00
2023-01-25T01:08:51.208Z,66548.00
2023-01-25T01:09:51.141Z,66548.00
2023-01-25T01:10:51.092Z,66546.00
2023-01-25T01:11:51.059Z,66548.00
2023-01-25T01:12:51.006Z,66548.00
2023-01-25T01:13:50.944Z,66550.00
2023-01-25T01:14:50.897Z,66548.00
2023-01-25T01:15:50.823Z,66548.00
2023-01-25T01:16:50.837Z,66548.00
2023-01-25T01:17:50.731Z,66548.00
2023-01-25T01:18:50.694Z,66548.00
2023-01-25T01:19:50.639Z,66548.00
2023-01-25T01:20:50.599Z,66548.00
2023-01-25T01:21:50.503Z,66548.00
2023-01-25T01:22:50.486Z,66548.00
2023-01-25T01:23:50.449Z,66548.00
2023-01-25T01:24:50.391Z,66548.00
2023-01-25T01:25:50.329Z,66548.00
2023-01-25T01:26:50.275Z,66548.00
2023-01-25T01:27:50.218Z,66548.00
2023-01-25T01:28:50.173Z,66548.00
2023-01-25T01:29:50.111Z,66548.00
2023-01-25T01:30:50.075Z,66548.00
2023-01-25T01:31:50.104Z,66548.00
2023-01-25T01:32:50.092Z,66548.00
2023-01-25T01:33:49.940Z,66546.00
2023-01-25T01:34:49.914Z,66548.00
2023-01-25T01:35:49.829Z,66550.00
2023-01-25T01:36:49.808Z,66546.00
2023-01-25T01:37:49.736Z,66548.00
2023-01-25T01:38:49.713Z,66548.00
2023-01-25T01:39:49.646Z,66548.00
2023-01-25T01:40:49.614Z,66548.00
2023-01-25T01:41:49.572Z,66548.00
2023-01-25T01:42:49.540Z,66548.00
2023-01-25T01:43:49.506Z,66548.00
2023-01-25T01:44:49.468Z,66546.00
2023-01-25T01:45:49.438Z,66546.00
2023-01-25T01:46:49.349Z,66548.00
2023-01-25T01:47:49.292Z,66546.00
2023-01-25T01:48:49.276Z,66548.00
2023-01-25T01:49:49.206Z,66546.00
2023-01-25T01:50:49.171Z,66546.00
2023-01-25T01:51:49.120Z,66546.00
2023-01-25T01:52:49.142Z,66550.00
2023-01-25T01:53:49.027Z,66548.00
2023-01-25T01:54:49.009Z,66548.00
2023-01-25T01:55:49.738Z,66548.00
2023-01-25T01:56:48.919Z,66546.00
2023-01-25T01:57:48.889Z,66546.00
2023-01-25T01:58:48.874Z,66548.00
2023-01-25T01:59:48.849Z,66546.00
2023-01-25T02:00:48.720Z,66546.00
2023-01-25T02:01:48.659Z,66546.00
2023-01-25T02:02:48.673Z,66546.00
2023-01-25T02:03:48.558Z,66548.00
2023-01-25T02:04:48.533Z,66548.00
2023-01-25T02:05:48.461Z,66548.00
2023-01-25T02:06:48.464Z,66548.00
2023-01-25T02:07:48.386Z,66546.00
2023-01-25T02:08:48.331Z,66546.00
2023-01-25T02:09:48.296Z,66546.00
2023-01-25T02:10:48.231Z,66546.00
2023-01-25T02:11:48.192Z,66546.00
2023-01-25T02:12:48.148Z,66548.00
2023-01-25T02:13:48.118Z,66548.00
2023-01-25T02:14:48.063Z,66546.00
2023-01-25T02:15:48.039Z,66546.00
2023-01-25T02:16:47.961Z,66546.00
2023-01-25T02:17:47.934Z,66546.00
2023-01-25T02:18:47.852Z,66546.00
2023-01-25T02:19:47.836Z,66548.00
2023-01-25T02:20:47.762Z,66548.00
2023-01-25T02:21:47.727Z,66548.00
2023-01-25T02:22:47.680Z,66548.00
2023-01-25T02:23:47.663Z,66550.00
2023-01-25T02:24:47.582Z,66548.00
2023-01-25T02:25:47.528Z,66548.00
2023-01-25T02:26:47.491Z,66548.00
2023-01-25T02:27:47.439Z,66548.00
2023-01-25T02:28:47.401Z,66550.00
2023-01-25T02:29:47.353Z,66550.00
2023-01-25T02:30:47.316Z,66550.00
2023-01-25T02:31:47.340Z,66550.00
2023-01-25T02:32:47.207Z,66550.00
2023-01-25T02:33:47.159Z,66548.00
2023-01-25T02:34:47.139Z,66550.00
2023-01-25T02:35:47.080Z,66548.00
2023-01-25T02:36:47.009Z,66548.00
2023-01-25T02:37:46.986Z,66546.00
2023-01-25T02:38:46.942Z,66544.00
2023-01-25T02:39:46.892Z,66546.00
2023-01-25T02:40:46.861Z,66541.00
2023-01-25T02:41:46.804Z,66537.00
2023-01-25T02:42:46.732Z,66527.00
2023-01-25T02:43:46.695Z,66521.00
2023-01-25T02:44:46.640Z,66521.00
2023-01-25T02:45:46.613Z,66517.00
2023-01-25T02:46:46.535Z,66517.00
2023-01-25T02:47:46.476Z,66515.00
2023-01-25T02:48:46.441Z,66511.00
2023-01-25T02:49:46.388Z,66509.00
2023-01-25T02:50:46.368Z,66509.00
2023-01-25T02:51:46.314Z,66507.00
2023-01-25T02:52:46.244Z,66505.00
2023-01-25T02:53:46.212Z,66499.00
2023-01-25T02:54:46.166Z,66497.00
2023-01-25T02:55:46.128Z,66499.00
2023-01-25T02:56:46.064Z,66499.00
2023-01-25T02:57:46.032Z,66499.00
2023-01-25T02:58:45.981Z,66499.00
2023-01-25T02:59:45.915Z,66497.00
2023-01-25T03:00:45.876Z,66492.00
2023-01-25T03:01:45.921Z,66497.00
2023-01-25T03:02:45.791Z,66492.00
2023-01-25T03:03:45.722Z,66488.00
2023-01-25T03:04:45.686Z,66488.00
2023-01-25T03:05:45.654Z,66485.00
2023-01-25T03:06:45.577Z,66481.00
2023-01-25T03:07:45.548Z,66486.00
2023-01-25T03:08:45.512Z,66485.00
2023-01-25T03:09:45.490Z,66485.00
2023-01-25T03:10:45.440Z,66485.00
2023-01-25T03:11:45.413Z,66479.00
2023-01-25T03:12:45.377Z,66479.00
2023-01-25T03:13:45.294Z,66479.00
2023-01-25T03:14:45.265Z,66481.00
2023-01-25T03:15:45.224Z,66479.00
2023-01-25T03:16:45.145Z,66479.00
2023-01-25T03:17:45.114Z,66477.00
2023-01-25T03:19:45.023Z,66473.00
2023-01-25T04:59:40.791Z,66455.00
2023-01-25T05:00:40.755Z,66453.00
2023-01-25T05:01:40.797Z,66455.00
2023-01-25T05:02:40.719Z,66455.00
2023-01-25T05:03:40.634Z,66455.00
2023-01-25T05:04:40.551Z,66455.00
2023-01-25T05:05:40.520Z,66453.00
2023-01-25T05:06:40.488Z,66453.00
2023-01-25T05:07:40.478Z,66455.00
2023-01-25T05:08:40.423Z,66455.00
2023-01-25T05:09:40.364Z,66453.00
2023-01-25T05:10:40.341Z,66451.00
2023-01-25T05:11:40.302Z,66449.00
2023-01-25T05:12:40.265Z,66449.00
2023-01-25T05:13:40.224Z,66449.00
2023-01-25T05:14:40.155Z,66451.00
2023-01-25T05:15:40.163Z,66453.00
2023-01-25T05:16:40.125Z,66451.00
2023-01-25T05:17:40.063Z,66453.00
2023-01-25T05:18:48.338Z,66451.00
2023-01-25T05:19:40.975Z,66453.00
2023-01-25T05:20:39.938Z,66459.00
2023-01-25T05:21:39.902Z,66463.00
2023-01-25T05:22:39.837Z,66465.00
2023-01-25T05:23:39.805Z,66469.00
2023-01-25T05:24:39.754Z,66471.00
2023-01-25T05:25:39.728Z,66469.00
2023-01-25T05:26:39.659Z,66469.00
2023-01-25T05:27:39.666Z,66471.00
2023-01-25T05:28:39.573Z,66467.00
2023-01-25T05:29:39.583Z,66467.00
2023-01-25T05:30:39.568Z,66467.00
2023-01-25T05:31:39.529Z,66469.00
2023-01-25T05:32:39.432Z,66463.00
2023-01-25T05:33:39.397Z,66455.00
2023-01-25T05:34:39.365Z,66449.00
2023-01-25T05:35:39.311Z,66445.00
2023-01-25T05:36:39.316Z,66443.00
2023-01-25T05:37:39.267Z,66435.00
2023-01-25T05:38:39.185Z,66429.00
2023-01-25T05:39:39.314Z,66427.00
2023-01-25T05:40:39.173Z,66417.00
2023-01-25T05:41:39.118Z,66411.00
2023-01-25T05:42:39.066Z,66406.00
2023-01-25T05:43:39.122Z,66404.00
2023-01-25T05:44:39.028Z,66404.00
2023-01-25T05:45:39.027Z,66404.00
2023-01-25T05:46:38.942Z,66406.00
2023-01-25T05:47:38.888Z,66406.00
2023-01-25T05:48:38.922Z,66406.00
2023-01-25T05:49:38.876Z,66404.00
2023-01-25T05:50:38.799Z,66400.00
2023-01-25T05:51:38.772Z,66400.00
2023-01-25T05:52:38.873Z,66400.00
2023-01-25T05:53:38.781Z,66400.00
2023-01-25T05:54:38.669Z,66396.00
2023-01-25T05:55:38.658Z,66398.00
2023-01-25T05:56:38.644Z,66400.00
2023-01-25T05:57:38.603Z,66386.00
2023-01-25T05:58:38.569Z,66384.00
2023-01-25T05:59:38.524Z,66384.00
2023-01-25T06:00:38.476Z,66376.00
2023-01-25T06:01:38.427Z,66370.00
2023-01-25T06:02:38.954Z,66368.00
2023-01-25T06:03:39.646Z,66372.00
2023-01-25T06:04:39.372Z,66374.00
2023-01-25T06:05:38.427Z,66372.00
2023-01-25T06:06:38.277Z,66370.00
2023-01-25T06:07:38.268Z,66364.00
2023-01-25T06:08:38.226Z,66362.00
2023-01-25T06:09:38.181Z,66358.00
2023-01-25T06:10:38.196Z,66356.00
2023-01-25T06:11:39.815Z,66356.00
2023-01-25T06:12:38.179Z,66360.00
2023-01-25T06:13:38.096Z,66362.00
2023-01-25T06:14:38.057Z,66362.00
2023-01-25T06:15:38.125Z,66362.00
2023-01-25T06:16:38.097Z,66360.00
2023-01-25T06:17:38.000Z,66360.00
2023-01-25T06:18:37.957Z,66358.00
2023-01-25T06:19:37.919Z,66358.00
2023-01-25T06:20:38.040Z,66358.00
2023-01-25T06:21:37.894Z,66354.00
2023-01-25T06:22:37.809Z,66358.00
2023-01-25T06:23:37.795Z,66360.00
2023-01-25T06:24:37.766Z,66358.00
2023-01-25T06:25:37.760Z,66352.00
2023-01-25T06:26:37.720Z,66352.00
2023-01-25T06:27:37.705Z,66352.00
2023-01-25T06:28:37.701Z,66356.00
2023-01-25T06:29:38.298Z,66362.00
2023-01-25T06:30:37.622Z,66364.00
2023-01-25T06:31:37.721Z,66372.00
2023-01-25T06:32:37.581Z,66378.00
2023-01-25T06:33:37.548Z,66386.00
2023-01-25T06:34:37.521Z,66388.00
2023-01-25T06:35:37.512Z,66390.00
2023-01-25T06:36:37.550Z,66396.00
2023-01-25T06:37:37.412Z,66392.00
2023-01-25T06:38:37.415Z,66394.00
2023-01-25T06:39:37.427Z,66400.00
2023-01-25T06:40:37.399Z,66406.00
2023-01-25T06:41:37.359Z,66411.00
2023-01-25T06:42:37.281Z,66415.00
2023-01-25T06:43:37.283Z,66406.00
2023-01-25T06:44:37.234Z,66392.00
2023-01-25T06:45:37.299Z,66362.00
2023-01-25T06:46:37.924Z,66344.00
2023-01-25T06:47:37.213Z,66333.00
2023-01-25T06:48:37.192Z,66329.00
2023-01-25T06:49:37.145Z,66331.00
2023-01-25T06:50:37.159Z,66335.00
2023-01-25T06:51:37.209Z,66333.00
2023-01-25T06:52:37.149Z,66331.00
2023-01-25T06:53:37.175Z,66325.00
2023-01-25T06:54:37.187Z,66315.00
2023-01-25T06:55:37.162Z,66309.00
2023-01-25T06:56:37.148Z,66299.00
2023-01-25T06:57:37.134Z,66291.00
2023-01-25T06:58:37.245Z,66307.00
2023-01-25T06:59:37.112Z,66325.00
2023-01-25T07:00:37.087Z,66344.00
2023-01-25T07:01:37.182Z,66364.00
2023-01-25T07:02:37.323Z,66382.00
2023-01-25T07:03:37.738Z,66398.00
2023-01-25T07:04:38.064Z,66417.00
2023-01-25T07:05:36.928Z,66433.00
2023-01-25T07:06:36.894Z,66447.00
2023-01-25T07:07:36.923Z,66461.00
2023-01-25T07:08:37.198Z,66471.00
2023-01-25T07:09:36.962Z,66479.00
2023-01-25T07:10:36.844Z,66488.00
2023-01-25T07:11:36.965Z,66492.00
2023-01-25T07:12:36.664Z,66497.00
2023-01-25T07:13:36.561Z,66503.00
2023-01-25T07:14:36.565Z,66509.00
2023-01-25T07:15:36.446Z,66519.00
2023-01-25T07:16:36.401Z,66529.00
2023-01-25T07:17:36.368Z,66537.00
2023-01-25T07:18:36.308Z,66541.00
2023-01-25T07:19:36.265Z,66544.00
2023-01-25T07:20:37.231Z,66552.00
2023-01-25T07:21:36.145Z,66554.00
2023-01-25T07:22:36.066Z,66560.00
2023-01-25T07:23:35.967Z,66564.00
2023-01-25T07:24:35.932Z,66564.00
2023-01-25T07:25:35.847Z,66570.00
2023-01-25T07:26:35.785Z,66572.00
2023-01-25T07:27:35.747Z,66578.00
2023-01-25T07:28:35.664Z,66578.00
2023-01-25T07:29:35.627Z,66582.00
2023-01-25T07:30:35.552Z,66586.00
2023-01-25T07:31:35.541Z,66590.00
2023-01-25T07:32:35.448Z,66590.00
2023-01-25T07:33:35.351Z,66590.00
2023-01-25T07:34:35.337Z,66590.00
2023-01-25T07:35:35.247Z,66594.00
2023-01-25T07:36:35.169Z,66594.00
2023-01-25T07:37:35.160Z,66596.00
2023-01-25T07:38:35.040Z,66598.00
2023-01-25T07:39:36.568Z,66598.00
2023-01-25T07:40:37.316Z,66602.00
2023-01-25T07:48:35.307Z,66598.00
2023-01-25T09:31:28.211Z,66582.00
2023-01-25T09:55:27.567Z,66382.00
2023-01-25T09:56:27.593Z,66372.00
2023-01-25T09:57:27.533Z,66354.00
2023-01-25T09:58:27.609Z,66344.00
2023-01-25T09:59:27.512Z,66339.00
2023-01-25T10:00:27.493Z,66341.00
2023-01-25T10:01:37.994Z,66346.00
2023-01-25T10:02:28.600Z,66337.00
2023-01-25T10:03:27.462Z,66339.00
2023-01-25T10:04:27.415Z,66350.00
2023-01-25T10:05:27.427Z,66370.00
2023-01-25T10:06:29.540Z,66384.00
2023-01-25T10:07:27.341Z,66400.00
2023-01-25T10:08:27.303Z,66417.00
2023-01-25T10:09:27.265Z,66433.00
2023-01-25T10:10:27.243Z,66445.00
2023-01-25T10:11:27.185Z,66457.00
2023-01-25T10:12:27.166Z,66469.00
2023-01-25T10:13:27.129Z,66475.00
2023-01-25T10:14:27.073Z,66486.00
2023-01-25T10:15:27.050Z,66497.00
2023-01-25T10:16:28.238Z,66507.00
2023-01-25T10:17:27.006Z,66515.00
2023-01-25T10:18:26.907Z,66521.00
2023-01-25T10:20:26.969Z,66535.00
2023-01-25T10:21:47.775Z,66539.00
2023-01-25T10:22:28.227Z,66541.00
2023-01-25T10:23:26.681Z,66546.00
2023-01-25T10:24:26.656Z,66552.00
2023-01-25T10:25:26.587Z,66558.00
2023-01-25T10:26:26.542Z,66562.00
2023-01-25T10:27:26.501Z,66568.00
2023-01-25T10:28:28.050Z,66572.00
2023-01-25T10:29:26.631Z,66576.00
2023-01-25T10:30:26.974Z,66582.00
2023-01-25T10:31:26.542Z,66586.00
2023-01-25T10:32:26.449Z,66588.00
2023-01-25T10:33:26.356Z,66590.00
2023-01-25T10:34:26.323Z,66596.00
2023-01-25T10:35:35.104Z,66600.00
2023-01-25T10:36:27.195Z,66600.00
2023-01-25T10:37:26.142Z,66602.00
2023-01-25T10:38:26.088Z,66606.00
2023-01-25T10:39:26.008Z,66611.00
2023-01-25T10:40:26.033Z,66615.00
2023-01-25T10:41:25.882Z,66617.00
2023-01-25T10:42:25.819Z,66615.00
2023-01-25T10:43:25.788Z,66613.00
2023-01-25T10:44:25.707Z,66611.00
2023-01-25T10:45:25.657Z,66602.00
2023-01-25T10:46:25.622Z,66600.00
2023-01-25T10:47:25.520Z,66600.00
2023-01-25T10:48:25.453Z,66598.00
2023-01-25T10:49:25.415Z,66600.00
2023-01-25T10:50:25.358Z,66598.00
2023-01-25T10:51:25.293Z,66598.00
2023-01-25T10:52:25.277Z,66600.00
2023-01-25T10:53:25.159Z,66600.00
2023-01-25T10:54:25.187Z,66602.00
2023-01-25T10:55:25.079Z,66602.00
2023-01-25T10:56:25.187Z,66600.00
2023-01-25T11:55:21.477Z,66606.00
2023-01-25T12:22:19.912Z,66594.00
2023-01-25T12:41:18.836Z,66588.00
2023-01-25T12:42:18.813Z,66588.00
2023-01-25T12:43:18.713Z,66590.00
2023-01-25T12:44:18.691Z,66588.00
2023-01-25T12:45:18.594Z,66588.00
2023-01-25T12:46:18.580Z,66586.00
2023-01-25T12:47:18.492Z,66588.00
2023-01-25T12:48:18.440Z,66588.00
2023-01-25T12:49:18.388Z,66588.00
2023-01-25T12:50:18.327Z,66588.00
2023-01-25T12:51:18.260Z,66588.00
2023-01-25T12:52:18.223Z,66586.00
2023-01-25T12:53:18.179Z,66588.00
2023-01-25T12:54:18.136Z,66590.00
2023-01-25T12:55:18.061Z,66590.00
2023-01-25T12:56:18.035Z,66590.00
2023-01-25T12:57:17.956Z,66586.00
2023-01-25T12:58:19.793Z,66590.00
2023-01-25T13:00:17.766Z,66596.00
2023-01-25T13:01:17.771Z,66600.00
2023-01-25T13:02:17.744Z,66609.00
2023-01-25T13:03:17.616Z,66613.00
2023-01-25T13:04:17.555Z,66619.00
2023-01-25T13:05:17.525Z,66625.00
2023-01-25T13:06:17.433Z,66625.00
2023-01-25T13:07:17.414Z,66631.00
2023-01-25T13:08:30.162Z,66635.00
2023-01-25T13:10:17.223Z,66641.00
2023-01-25T13:11:17.160Z,66643.00
2023-01-25T13:12:17.143Z,66649.00
2023-01-25T13:13:17.067Z,66655.00
2023-01-25T13:14:16.976Z,66657.00
2023-01-25T13:15:16.902Z,66663.00
2023-01-25T13:16:16.896Z,66665.00
2023-01-25T13:17:16.793Z,66669.00
2023-01-25T13:18:16.702Z,66669.00
2023-01-25T13:19:16.656Z,66671.00
2023-01-25T13:20:16.608Z,66673.00
2023-01-25T13:21:16.511Z,66677.00
2023-01-25T13:22:16.435Z,66677.00
2023-01-25T13:23:16.387Z,66680.00
2023-01-25T13:24:16.367Z,66682.00
2023-01-25T13:25:16.245Z,66688.00
2023-01-25T13:26:16.287Z,66688.00
2023-01-25T13:27:16.102Z,66690.00
2023-01-25T13:28:16.092Z,66692.00
2023-01-25T13:29:16.002Z,66694.00
2023-01-25T13:30:15.977Z,66700.00
2023-01-25T13:31:16.031Z,66702.00
2023-01-25T13:32:15.910Z,66706.00
2023-01-25T13:33:15.753Z,66706.00
2023-01-25T13:34:15.622Z,66708.00
2023-01-25T13:35:15.541Z,66710.00
2023-01-25T13:36:15.493Z,66712.00
2023-01-25T13:37:15.406Z,66714.00
2023-01-25T13:38:15.352Z,66718.00
2023-01-25T13:39:15.294Z,66722.00
2023-01-25T13:40:15.404Z,66726.00
2023-01-25T13:41:15.134Z,66724.00
2023-01-25T13:42:15.062Z,66726.00
2023-01-25T13:47:14.679Z,66734.00
2023-01-25T13:48:14.653Z,66736.00
2023-01-25T13:49:14.537Z,66738.00
2023-01-25T13:50:14.485Z,66740.00
2023-01-25T13:51:14.396Z,66742.00
2023-01-25T13:52:14.336Z,66748.00
2023-01-25T13:53:14.268Z,66746.00
2023-01-25T13:54:14.177Z,66748.00
2023-01-25T13:55:14.115Z,66752.00
2023-01-25T13:56:14.034Z,66756.00
2023-01-25T13:57:14.376Z,66754.00
2023-01-25T13:58:13.904Z,66754.00
2023-01-25T13:59:13.833Z,66756.00
2023-01-25T14:00:14.136Z,66758.00
2023-01-25T14:01:13.745Z,66758.00
2023-01-25T14:02:13.702Z,66762.00
2023-01-25T14:03:13.536Z,66760.00
2023-01-25T14:04:13.475Z,66764.00
2023-01-25T14:05:13.377Z,66762.00
2023-01-25T14:06:13.308Z,66762.00
2023-01-25T14:07:13.267Z,66762.00
2023-01-25T14:08:13.175Z,66762.00
2023-01-25T14:09:16.410Z,66766.00
2023-01-25T14:10:13.000Z,66762.00
2023-01-25T14:11:12.936Z,66762.00
2023-01-25T14:12:12.864Z,66762.00
2023-01-25T14:13:12.815Z,66760.00
2023-01-25T14:14:12.709Z,66760.00
2023-01-25T14:15:12.636Z,66764.00
2023-01-25T14:16:12.606Z,66762.00
2023-01-25T14:17:12.472Z,66762.00
2023-01-25T14:18:12.417Z,66762.00
2023-01-25T14:19:12.322Z,66760.00
2023-01-25T14:20:12.232Z,66758.00
2023-01-25T14:21:12.134Z,66760.00
2023-01-25T14:22:12.067Z,66758.00
2023-01-25T14:23:11.997Z,66758.00
2023-01-25T14:24:12.038Z,66760.00
2023-01-25T14:25:11.799Z,66758.00
2023-01-25T14:26:11.740Z,66760.00
2023-01-25T14:27:11.682Z,66758.00
2023-01-25T14:28:11.585Z,66758.00
2023-01-25T14:29:14.276Z,66756.00
2023-01-25T14:30:12.491Z,66758.00
2023-01-25T14:31:11.374Z,66756.00
2023-01-25T14:32:11.265Z,66760.00
2023-01-25T14:33:11.169Z,66758.00
2023-01-25T14:34:11.119Z,66756.00
2023-01-25T14:35:11.018Z,66756.00
2023-01-25T14:36:24.167Z,66754.00
2023-01-25T14:37:11.876Z,66748.00
2023-01-25T14:38:10.818Z,66752.00
2023-01-25T14:39:10.758Z,66744.00
2023-01-25T14:40:10.977Z,66740.00
2023-01-25T14:41:10.626Z,66734.00
2023-01-25T14:42:10.545Z,66728.00
2023-01-25T14:43:10.480Z,66726.00
2023-01-25T14:44:10.434Z,66720.00
2023-01-25T14:45:10.365Z,66720.00
2023-01-25T14:46:10.278Z,66716.00
2023-01-25T14:47:10.229Z,66716.00
2023-01-25T14:48:10.158Z,66712.00
2023-01-25T14:49:10.094Z,66710.00
2023-01-25T14:50:10.409Z,66706.00
2023-01-25T14:51:09.946Z,66708.00
2023-01-25T14:52:09.874Z,66704.00
2023-01-25T14:53:09.807Z,66700.00
2023-01-25T14:54:09.788Z,66696.00
2023-01-25T14:55:09.760Z,66694.00
2023-01-25T14:56:09.666Z,66692.00
2023-01-25T14:57:09.534Z,66690.00
2023-01-25T14:58:09.515Z,66688.00
2023-01-25T14:59:09.434Z,66686.00
2023-01-25T15:00:09.779Z,66686.00
2023-01-25T15:01:09.341Z,66686.00
2023-01-25T15:02:09.283Z,66686.00
2023-01-25T15:03:09.148Z,66686.00
2023-01-25T15:04:09.109Z,66684.00
2023-01-25T15:05:15.423Z,66680.00
2023-01-25T15:06:09.975Z,66682.00
2023-01-25T15:07:17.725Z,66682.00
2023-01-25T15:08:09.850Z,66680.00
2023-01-25T15:09:08.773Z,66680.00
2023-01-25T15:10:08.942Z,66678.00
2023-01-25T15:11:08.649Z,66680.00
2023-01-25T15:12:08.614Z,66677.00
2023-01-25T15:13:14.150Z,66678.00
2023-01-25T15:14:09.516Z,66677.00
2023-01-25T15:15:08.387Z,66675.00
2023-01-25T15:16:08.358Z,66671.00
2023-01-25T15:17:08.280Z,66673.00
2023-01-25T15:18:08.208Z,66673.00
2023-01-25T15:19:08.157Z,66675.00
2023-01-25T15:20:08.274Z,66671.00
2023-01-25T15:21:08.017Z,66671.00
2023-01-25T15:22:07.969Z,66669.00
2023-01-25T15:23:07.885Z,66669.00
2023-01-25T15:24:07.863Z,66667.00
2023-01-25T15:25:12.637Z,66665.00
2023-01-25T15:26:08.706Z,66667.00
2023-01-25T15:27:07.653Z,66663.00
2023-01-25T15:28:07.601Z,66665.00
2023-01-25T15:29:07.542Z,66663.00
2023-01-25T15:30:07.746Z,66663.00
2023-01-25T15:31:07.458Z,66661.00
2023-01-25T15:32:07.347Z,66661.00
2023-01-25T15:33:07.283Z,66659.00
2023-01-25T15:34:07.214Z,66659.00
2023-01-25T15:35:07.200Z,66657.00
2023-01-25T15:36:07.092Z,66659.00
2023-01-25T15:37:07.047Z,66655.00
2023-01-25T15:38:06.978Z,66657.00
2023-01-25T15:39:06.900Z,66655.00
2023-01-25T15:40:06.870Z,66655.00
2023-01-25T15:41:06.879Z,66655.00
2023-01-25T15:42:06.715Z,66653.00
2023-01-25T15:43:06.647Z,66651.00
2023-01-25T15:44:06.582Z,66649.00
2023-01-25T15:45:06.939Z,66649.00
2023-01-25T15:46:06.488Z,66649.00
2023-01-25T15:47:06.378Z,66647.00
2023-01-25T15:48:06.314Z,66649.00
2023-01-25T15:49:06.289Z,66645.00
2023-01-25T15:50:06.196Z,66647.00
2023-01-25T15:51:06.137Z,66643.00
2023-01-25T15:52:06.076Z,66641.00
2023-01-25T15:53:06.018Z,66641.00
2023-01-25T15:54:05.937Z,66639.00
2023-01-25T15:55:05.929Z,66641.00
2023-01-25T15:56:05.830Z,66641.00
2023-01-25T15:57:05.796Z,66641.00
2023-01-25T15:58:05.714Z,66637.00
2023-01-25T15:59:05.728Z,66637.00
2023-01-25T16:00:05.666Z,66637.00
2023-01-25T16:01:05.611Z,66639.00
2023-01-25T16:02:05.506Z,66635.00
2023-01-25T16:03:05.419Z,66635.00
2023-01-25T16:04:05.334Z,66635.00
2023-01-25T16:05:05.276Z,66635.00
2023-01-25T16:06:05.198Z,66633.00
2023-01-25T16:07:05.129Z,66633.00
2023-01-25T16:08:05.053Z,66633.00
2023-01-25T16:09:05.055Z,66627.00
2023-01-25T16:36:03.326Z,66607.00
2023-01-25T16:37:03.316Z,66607.00
2023-01-25T16:38:03.205Z,66606.00
2023-01-25T16:39:03.136Z,66607.00
2023-01-25T16:40:03.097Z,66607.00
2023-01-25T16:41:03.528Z,66607.00
2023-01-25T16:42:02.948Z,66607.00
2023-01-25T16:43:02.911Z,66607.00
2023-01-25T16:44:02.829Z,66607.00
2023-01-25T16:45:02.761Z,66607.00
2023-01-25T16:46:02.739Z,66604.00
2023-01-25T16:47:02.641Z,66602.00
2023-01-25T16:48:02.611Z,66600.00
2023-01-25T16:49:02.536Z,66598.00
2023-01-25T16:50:02.473Z,66598.00
2023-01-25T16:51:02.410Z,66598.00
2023-01-25T16:52:02.358Z,66600.00
2023-01-25T16:53:02.298Z,66598.00
2023-01-25T16:54:02.239Z,66598.00
2023-01-25T16:55:02.184Z,66598.00
2023-01-25T16:56:02.139Z,66598.00
2023-01-25T16:57:14.976Z,66598.00
2023-01-25T16:58:03.021Z,66596.00
2023-01-25T16:59:01.954Z,66596.00
2023-01-25T17:00:03.306Z,66596.00
2023-01-25T17:01:01.889Z,66592.00
2023-01-25T17:02:01.796Z,66596.00
2023-01-25T17:03:01.756Z,66596.00
2023-01-25T17:04:01.650Z,66596.00
2023-01-25T17:05:01.628Z,66596.00
2023-01-25T17:06:01.542Z,66596.00
2023-01-25T17:07:01.534Z,66596.00
2023-01-25T17:08:01.452Z,66596.00
2023-01-25T17:09:09.386Z,66596.00
2023-01-25T17:10:02.318Z,66596.00
2023-01-25T17:11:01.273Z,66598.00
2023-01-25T17:12:01.234Z,66598.00
2023-01-25T17:13:01.172Z,66594.00
2023-01-25T17:14:01.113Z,66594.00
2023-01-25T17:15:01.071Z,66596.00
2023-01-25T17:16:01.059Z,66596.00
2023-01-25T17:17:00.931Z,66594.00
2023-01-25T17:18:00.864Z,66596.00
2023-01-25T17:19:00.825Z,66594.00
2023-01-25T17:20:00.766Z,66594.00
2023-01-25T17:21:00.724Z,66596.00
2023-01-25T17:22:00.649Z,66594.00
2023-01-25T17:23:00.585Z,66596.00
2023-01-25T17:24:00.551Z,66596.00
2023-01-25T17:25:00.467Z,66594.00
2023-01-25T17:26:00.425Z,66592.00
2023-01-25T17:27:00.388Z,66594.00
2023-01-25T17:28:00.288Z,66592.00
2023-01-25T17:29:00.260Z,66594.00
2023-01-25T17:30:00.188Z,66592.00
2023-01-25T17:31:00.211Z,66592.00
2023-01-25T17:32:00.131Z,66590.00
2023-01-25T17:33:00.057Z,66590.00
2023-01-25T17:33:59.942Z,66592.00
2023-01-25T17:34:59.902Z,66588.00
2023-01-25T17:35:59.865Z,66590.00
2023-01-25T17:36:59.821Z,66588.00
2023-01-25T17:37:59.716Z,66590.00
2023-01-25T17:38:59.660Z,66588.00
2023-01-25T17:39:59.604Z,66590.00
2023-01-25T17:40:59.541Z,66590.00
2023-01-25T17:41:59.487Z,66586.00
2023-01-25T17:42:59.414Z,66584.00
2023-01-25T17:43:59.348Z,66582.00
2023-01-25T17:44:59.315Z,66584.00
2023-01-25T17:45:59.290Z,66584.00
2023-01-25T17:46:59.218Z,66582.00
2023-01-25T17:47:59.131Z,66582.00
2023-01-25T17:48:59.051Z,66582.00
2023-01-25T17:49:58.995Z,66582.00
2023-01-25T17:50:58.929Z,66584.00